sensor_id;sensor_type;location;lat;lon;timestamp;P1;durP1;ratioP1;P2;durP2;ratioP2
81353;SDS011;70810;52.038;8.524;2023-12-07T00:01:42;48.83;;;22.83;;
81353;SDS011;70810;52.038;8.524;2023-12-07T00:04:09;50.30;;;25.20;;
81353;SDS011;70810;52.038;8.524;2023-12-07T00:06:36;48.22;;;23.05;;
81353;SDS011;70810;52.038;8.524;2023-12-07T00:09:04;50.15;;;21.58;;
81353;SDS011;70810;52.038;8.524;2023-12-07T00:11:32;60.60;;;25.85;;
81353;SDS011;70810;52.038;8.524;2023-12-07T00:14:00;56.22;;;22.92;;
81353;SDS011;70810;52.038;8.524;2023-12-07T00:16:29;48.20;;;24.98;;
81353;SDS011;70810;52.038;8.524;2023-12-07T00:18:58;51.50;;;23.90;;
81353;SDS011;70810;52.038;8.524;2023-12-07T00:21:29;47.38;;;21.73;;
81353;SDS011;70810;52.038;8.524;2023-12-07T00:23:56;38.30;;;20.20;;
81353;SDS011;70810;52.038;8.524;2023-12-07T00:26:23;48.38;;;22.10;;
81353;SDS011;70810;52.038;8.524;2023-12-07T00:28:50;55.80;;;25.42;;
81353;SDS011;70810;52.038;8.524;2023-12-07T00:31:17;56.20;;;25.20;;
81353;SDS011;70810;52.038;8.524;2023-12-07T00:33:47;53.65;;;23.05;;
81353;SDS011;70810;52.038;8.524;2023-12-07T00:36:14;47.03;;;22.88;;
81353;SDS011;70810;52.038;8.524;2023-12-07T00:38:41;48.80;;;23.45;;
81353;SDS011;70810;52.038;8.524;2023-12-07T00:41:08;45.67;;;23.08;;
81353;SDS011;70810;52.038;8.524;2023-12-07T00:43:38;51.53;;;23.23;;
81353;SDS011;70810;52.038;8.524;2023-12-07T00:46:06;51.80;;;23.90;;
81353;SDS011;70810;52.038;8.524;2023-12-07T00:48:33;51.72;;;24.00;;
81353;SDS011;70810;52.038;8.524;2023-12-07T00:51:01;48.22;;;22.75;;
81353;SDS011;70810;52.038;8.524;2023-12-07T00:53:30;54.10;;;23.83;;
81353;SDS011;70810;52.038;8.524;2023-12-07T00:55:57;63.22;;;28.33;;
81353;SDS011;70810;52.038;8.524;2023-12-07T00:58:24;56.17;;;25.50;;
81353;SDS011;70810;52.038;8.524;2023-12-07T01:00:52;50.05;;;22.88;;
81353;SDS011;70810;52.038;8.524;2023-12-07T01:03:19;53.38;;;23.80;;
81353;SDS011;70810;52.038;8.524;2023-12-07T01:05:48;52.97;;;23.83;;
81353;SDS011;70810;52.038;8.524;2023-12-07T01:08:18;81.38;;;44.25;;
81353;SDS011;70810;52.038;8.524;2023-12-07T01:10:46;54.25;;;24.05;;
81353;SDS011;70810;52.038;8.524;2023-12-07T01:13:13;48.42;;;25.10;;
81353;SDS011;70810;52.038;8.524;2023-12-07T01:15:41;53.35;;;26.25;;
81353;SDS011;70810;52.038;8.524;2023-12-07T01:18:09;47.30;;;24.13;;
81353;SDS011;70810;52.038;8.524;2023-12-07T01:20:37;47.97;;;23.60;;
81353;SDS011;70810;52.038;8.524;2023-12-07T01:23:04;49.42;;;25.80;;
81353;SDS011;70810;52.038;8.524;2023-12-07T01:25:32;58.80;;;28.65;;
81353;SDS011;70810;52.038;8.524;2023-12-07T01:28:00;50.42;;;24.27;;
81353;SDS011;70810;52.038;8.524;2023-12-07T01:30:27;57.25;;;27.15;;
81353;SDS011;70810;52.038;8.524;2023-12-07T01:32:55;42.40;;;22.90;;
81353;SDS011;70810;52.038;8.524;2023-12-07T01:35:23;52.13;;;25.45;;
81353;SDS011;70810;52.038;8.524;2023-12-07T01:37:50;55.15;;;26.33;;
81353;SDS011;70810;52.038;8.524;2023-12-07T01:40:17;55.75;;;28.90;;
81353;SDS011;70810;52.038;8.524;2023-12-07T01:42:53;59.83;;;27.55;;
81353;SDS011;70810;52.038;8.524;2023-12-07T01:45:22;57.30;;;26.23;;
81353;SDS011;70810;52.038;8.524;2023-12-07T01:47:51;61.70;;;28.00;;
81353;SDS011;70810;52.038;8.524;2023-12-07T01:50:21;54.83;;;27.90;;
81353;SDS011;70810;52.038;8.524;2023-12-07T01:52:51;64.45;;;28.85;;
81353;SDS011;70810;52.038;8.524;2023-12-07T01:55:21;55.83;;;26.02;;
81353;SDS011;70810;52.038;8.524;2023-12-07T01:57:49;66.88;;;27.63;;
81353;SDS011;70810;52.038;8.524;2023-12-07T02:00:20;60.63;;;29.05;;
81353;SDS011;70810;52.038;8.524;2023-12-07T02:02:47;51.60;;;25.63;;
81353;SDS011;70810;52.038;8.524;2023-12-07T02:05:16;50.95;;;24.85;;
81353;SDS011;70810;52.038;8.524;2023-12-07T02:07:43;53.88;;;24.17;;
81353;SDS011;70810;52.038;8.524;2023-12-07T02:10:10;46.40;;;23.77;;
81353;SDS011;70810;52.038;8.524;2023-12-07T02:12:39;43.53;;;23.85;;
81353;SDS011;70810;52.038;8.524;2023-12-07T02:15:08;49.08;;;23.80;;
81353;SDS011;70810;52.038;8.524;2023-12-07T02:17:41;50.00;;;24.80;;
81353;SDS011;70810;52.038;8.524;2023-12-07T02:20:16;44.97;;;23.45;;
81353;SDS011;70810;52.038;8.524;2023-12-07T02:22:56;57.42;;;25.08;;
81353;SDS011;70810;52.038;8.524;2023-12-07T02:25:36;52.95;;;25.05;;
81353;SDS011;70810;52.038;8.524;2023-12-07T02:28:09;49.17;;;25.33;;
81353;SDS011;70810;52.038;8.524;2023-12-07T02:30:36;52.97;;;25.08;;
81353;SDS011;70810;52.038;8.524;2023-12-07T02:33:03;51.30;;;26.42;;
81353;SDS011;70810;52.038;8.524;2023-12-07T02:35:32;53.15;;;27.88;;
81353;SDS011;70810;52.038;8.524;2023-12-07T02:38:00;48.05;;;23.42;;
81353;SDS011;70810;52.038;8.524;2023-12-07T02:40:28;58.40;;;28.45;;
81353;SDS011;70810;52.038;8.524;2023-12-07T02:42:59;60.65;;;25.20;;
81353;SDS011;70810;52.038;8.524;2023-12-07T02:45:32;45.78;;;22.60;;
81353;SDS011;70810;52.038;8.524;2023-12-07T02:47:59;44.40;;;22.70;;
81353;SDS011;70810;52.038;8.524;2023-12-07T02:50:26;49.97;;;23.17;;
81353;SDS011;70810;52.038;8.524;2023-12-07T02:52:55;57.60;;;26.38;;
81353;SDS011;70810;52.038;8.524;2023-12-07T02:55:24;51.30;;;24.67;;
81353;SDS011;70810;52.038;8.524;2023-12-07T02:57:50;51.88;;;23.88;;
81353;SDS011;70810;52.038;8.524;2023-12-07T03:00:20;46.25;;;22.40;;
81353;SDS011;70810;52.038;8.524;2023-12-07T03:02:49;46.05;;;21.05;;
81353;SDS011;70810;52.038;8.524;2023-12-07T03:05:17;43.05;;;21.77;;
81353;SDS011;70810;52.038;8.524;2023-12-07T03:07:49;40.55;;;20.98;;
81353;SDS011;70810;52.038;8.524;2023-12-07T03:10:16;40.88;;;21.00;;
81353;SDS011;70810;52.038;8.524;2023-12-07T03:12:56;49.33;;;22.98;;
81353;SDS011;70810;52.038;8.524;2023-12-07T03:15:25;48.35;;;22.33;;
81353;SDS011;70810;52.038;8.524;2023-12-07T03:17:53;53.58;;;23.98;;
81353;SDS011;70810;52.038;8.524;2023-12-07T03:20:24;48.67;;;25.30;;
81353;SDS011;70810;52.038;8.524;2023-12-07T03:23:01;46.08;;;21.67;;
81353;SDS011;70810;52.038;8.524;2023-12-07T03:25:29;49.20;;;21.77;;
81353;SDS011;70810;52.038;8.524;2023-12-07T03:27:56;43.65;;;22.73;;
81353;SDS011;70810;52.038;8.524;2023-12-07T03:30:23;44.85;;;23.30;;
81353;SDS011;70810;52.038;8.524;2023-12-07T03:32:50;42.63;;;21.58;;
81353;SDS011;70810;52.038;8.524;2023-12-07T03:35:18;45.00;;;22.48;;
81353;SDS011;70810;52.038;8.524;2023-12-07T03:37:45;47.10;;;22.00;;
81353;SDS011;70810;52.038;8.524;2023-12-07T03:40:12;42.35;;;22.70;;
81353;SDS011;70810;52.038;8.524;2023-12-07T03:42:39;34.78;;;20.67;;
81353;SDS011;70810;52.038;8.524;2023-12-07T03:45:06;44.08;;;21.45;;
81353;SDS011;70810;52.038;8.524;2023-12-07T03:47:35;48.58;;;20.75;;
81353;SDS011;70810;52.038;8.524;2023-12-07T03:50:02;37.05;;;20.88;;
81353;SDS011;70810;52.038;8.524;2023-12-07T03:52:32;40.42;;;21.23;;
81353;SDS011;70810;52.038;8.524;2023-12-07T03:55:00;39.85;;;22.15;;
81353;SDS011;70810;52.038;8.524;2023-12-07T03:57:28;39.47;;;21.17;;
81353;SDS011;70810;52.038;8.524;2023-12-07T03:59:57;47.65;;;22.00;;
81353;SDS011;70810;52.038;8.524;2023-12-07T04:02:25;46.13;;;22.58;;
81353;SDS011;70810;52.038;8.524;2023-12-07T04:04:53;45.67;;;22.90;;
81353;SDS011;70810;52.038;8.524;2023-12-07T04:07:20;38.10;;;20.83;;
81353;SDS011;70810;52.038;8.524;2023-12-07T04:09:51;46.60;;;23.25;;
81353;SDS011;70810;52.038;8.524;2023-12-07T04:12:17;42.83;;;22.25;;
81353;SDS011;70810;52.038;8.524;2023-12-07T04:14:45;46.92;;;22.65;;
81353;SDS011;70810;52.038;8.524;2023-12-07T04:17:12;38.20;;;20.67;;
81353;SDS011;70810;52.038;8.524;2023-12-07T04:19:40;43.90;;;22.77;;
81353;SDS011;70810;52.038;8.524;2023-12-07T04:22:09;43.83;;;21.83;;
81353;SDS011;70810;52.038;8.524;2023-12-07T04:24:36;42.60;;;20.38;;
81353;SDS011;70810;52.038;8.524;2023-12-07T04:27:05;44.35;;;20.80;;
81353;SDS011;70810;52.038;8.524;2023-12-07T04:29:31;44.95;;;23.48;;
81353;SDS011;70810;52.038;8.524;2023-12-07T04:31:58;43.50;;;23.52;;
81353;SDS011;70810;52.038;8.524;2023-12-07T04:34:30;38.60;;;21.00;;
81353;SDS011;70810;52.038;8.524;2023-12-07T04:36:59;40.58;;;20.42;;
81353;SDS011;70810;52.038;8.524;2023-12-07T04:39:26;46.30;;;22.65;;
81353;SDS011;70810;52.038;8.524;2023-12-07T04:41:53;45.50;;;22.35;;
81353;SDS011;70810;52.038;8.524;2023-12-07T04:44:22;46.30;;;22.95;;
81353;SDS011;70810;52.038;8.524;2023-12-07T04:46:52;51.75;;;23.40;;
81353;SDS011;70810;52.038;8.524;2023-12-07T04:49:20;54.80;;;25.08;;
81353;SDS011;70810;52.038;8.524;2023-12-07T04:51:47;45.42;;;24.58;;
81353;SDS011;70810;52.038;8.524;2023-12-07T04:54:15;46.78;;;23.52;;
81353;SDS011;70810;52.038;8.524;2023-12-07T04:56:42;52.55;;;24.55;;
81353;SDS011;70810;52.038;8.524;2023-12-07T04:59:11;57.42;;;27.38;;
81353;SDS011;70810;52.038;8.524;2023-12-07T05:01:40;50.03;;;24.45;;
81353;SDS011;70810;52.038;8.524;2023-12-07T05:04:08;47.33;;;23.55;;
81353;SDS011;70810;52.038;8.524;2023-12-07T05:06:36;48.95;;;26.25;;
81353;SDS011;70810;52.038;8.524;2023-12-07T05:09:03;46.25;;;24.50;;
81353;SDS011;70810;52.038;8.524;2023-12-07T05:11:31;49.92;;;25.40;;
81353;SDS011;70810;52.038;8.524;2023-12-07T05:13:59;55.75;;;24.52;;
81353;SDS011;70810;52.038;8.524;2023-12-07T05:16:26;51.33;;;25.70;;
81353;SDS011;70810;52.038;8.524;2023-12-07T05:18:54;49.35;;;24.83;;
81353;SDS011;70810;52.038;8.524;2023-12-07T05:21:21;67.50;;;28.77;;
81353;SDS011;70810;52.038;8.524;2023-12-07T05:23:49;53.75;;;25.60;;
81353;SDS011;70810;52.038;8.524;2023-12-07T05:26:16;50.67;;;25.60;;
81353;SDS011;70810;52.038;8.524;2023-12-07T05:28:44;59.13;;;28.52;;
81353;SDS011;70810;52.038;8.524;2023-12-07T05:31:16;56.42;;;27.00;;
81353;SDS011;70810;52.038;8.524;2023-12-07T05:33:47;56.65;;;28.90;;
81353;SDS011;70810;52.038;8.524;2023-12-07T05:36:15;56.88;;;27.80;;
81353;SDS011;70810;52.038;8.524;2023-12-07T05:38:42;56.92;;;27.33;;
81353;SDS011;70810;52.038;8.524;2023-12-07T05:41:09;55.95;;;25.20;;
81353;SDS011;70810;52.038;8.524;2023-12-07T05:43:40;56.50;;;27.15;;
81353;SDS011;70810;52.038;8.524;2023-12-07T05:46:07;51.97;;;26.77;;
81353;SDS011;70810;52.038;8.524;2023-12-07T05:48:34;65.05;;;29.58;;
81353;SDS011;70810;52.038;8.524;2023-12-07T05:51:01;60.15;;;27.70;;
81353;SDS011;70810;52.038;8.524;2023-12-07T05:53:30;55.65;;;26.05;;
81353;SDS011;70810;52.038;8.524;2023-12-07T05:55:58;58.38;;;27.83;;
81353;SDS011;70810;52.038;8.524;2023-12-07T05:58:25;61.10;;;28.13;;
81353;SDS011;70810;52.038;8.524;2023-12-07T06:00:52;63.47;;;28.00;;
81353;SDS011;70810;52.038;8.524;2023-12-07T06:03:19;71.07;;;29.35;;
81353;SDS011;70810;52.038;8.524;2023-12-07T06:05:46;57.63;;;28.23;;
81353;SDS011;70810;52.038;8.524;2023-12-07T06:08:14;65.60;;;29.00;;
81353;SDS011;70810;52.038;8.524;2023-12-07T06:10:42;61.58;;;28.27;;
81353;SDS011;70810;52.038;8.524;2023-12-07T06:13:10;61.85;;;29.38;;
81353;SDS011;70810;52.038;8.524;2023-12-07T06:15:38;57.05;;;28.52;;
81353;SDS011;70810;52.038;8.524;2023-12-07T06:18:07;69.97;;;30.42;;
81353;SDS011;70810;52.038;8.524;2023-12-07T06:20:37;66.72;;;27.45;;
81353;SDS011;70810;52.038;8.524;2023-12-07T06:23:58;62.28;;;29.33;;
81353;SDS011;70810;52.038;8.524;2023-12-07T06:27:06;63.08;;;31.60;;
81353;SDS011;70810;52.038;8.524;2023-12-07T06:29:36;72.43;;;31.02;;
81353;SDS011;70810;52.038;8.524;2023-12-07T06:32:06;74.63;;;32.88;;
81353;SDS011;70810;52.038;8.524;2023-12-07T06:34:32;58.40;;;28.98;;
81353;SDS011;70810;52.038;8.524;2023-12-07T06:36:59;78.60;;;34.42;;
81353;SDS011;70810;52.038;8.524;2023-12-07T06:39:26;79.65;;;33.83;;
81353;SDS011;70810;52.038;8.524;2023-12-07T06:41:54;73.35;;;33.75;;
81353;SDS011;70810;52.038;8.524;2023-12-07T06:44:26;114.63;;;48.13;;
81353;SDS011;70810;52.038;8.524;2023-12-07T06:46:53;82.75;;;35.05;;
81353;SDS011;70810;52.038;8.524;2023-12-07T06:49:20;80.97;;;37.58;;
81353;SDS011;70810;52.038;8.524;2023-12-07T06:51:49;78.68;;;36.25;;
81353;SDS011;70810;52.038;8.524;2023-12-07T06:54:16;94.95;;;38.95;;
81353;SDS011;70810;52.038;8.524;2023-12-07T06:56:43;88.80;;;36.67;;
81353;SDS011;70810;52.038;8.524;2023-12-07T06:59:10;94.72;;;38.00;;
81353;SDS011;70810;52.038;8.524;2023-12-07T07:01:38;81.63;;;36.63;;
81353;SDS011;70810;52.038;8.524;2023-12-07T07:04:06;70.63;;;35.58;;
81353;SDS011;70810;52.038;8.524;2023-12-07T07:06:33;85.13;;;36.38;;
81353;SDS011;70810;52.038;8.524;2023-12-07T07:09:00;69.43;;;34.20;;
81353;SDS011;70810;52.038;8.524;2023-12-07T07:11:27;101.47;;;39.08;;
81353;SDS011;70810;52.038;8.524;2023-12-07T07:13:54;83.72;;;37.58;;
81353;SDS011;70810;52.038;8.524;2023-12-07T07:16:21;85.93;;;35.90;;
81353;SDS011;70810;52.038;8.524;2023-12-07T07:18:50;81.25;;;34.45;;
81353;SDS011;70810;52.038;8.524;2023-12-07T07:21:28;93.10;;;36.10;;
81353;SDS011;70810;52.038;8.524;2023-12-07T07:24:01;83.50;;;37.15;;
81353;SDS011;70810;52.038;8.524;2023-12-07T07:26:28;94.88;;;37.38;;
81353;SDS011;70810;52.038;8.524;2023-12-07T07:28:55;83.65;;;37.47;;
81353;SDS011;70810;52.038;8.524;2023-12-07T07:31:21;77.10;;;33.70;;
81353;SDS011;70810;52.038;8.524;2023-12-07T07:34:02;83.75;;;37.55;;
81353;SDS011;70810;52.038;8.524;2023-12-07T07:37:10;94.22;;;36.38;;
81353;SDS011;70810;52.038;8.524;2023-12-07T07:40:00;90.95;;;36.83;;
81353;SDS011;70810;52.038;8.524;2023-12-07T07:42:34;103.38;;;42.10;;
81353;SDS011;70810;52.038;8.524;2023-12-07T07:45:00;114.38;;;40.25;;
81353;SDS011;70810;52.038;8.524;2023-12-07T07:47:28;98.90;;;37.83;;
81353;SDS011;70810;52.038;8.524;2023-12-07T07:49:58;113.28;;;39.50;;
81353;SDS011;70810;52.038;8.524;2023-12-07T07:52:31;86.45;;;34.90;;
81353;SDS011;70810;52.038;8.524;2023-12-07T07:55:07;80.97;;;34.53;;
81353;SDS011;70810;52.038;8.524;2023-12-07T07:57:40;89.57;;;35.90;;
81353;SDS011;70810;52.038;8.524;2023-12-07T08:00:09;95.97;;;34.58;;
81353;SDS011;70810;52.038;8.524;2023-12-07T08:02:38;90.15;;;36.60;;
81353;SDS011;70810;52.038;8.524;2023-12-07T08:05:06;89.18;;;33.83;;
81353;SDS011;70810;52.038;8.524;2023-12-07T08:07:35;89.28;;;36.75;;
81353;SDS011;70810;52.038;8.524;2023-12-07T08:10:03;87.50;;;35.53;;
81353;SDS011;70810;52.038;8.524;2023-12-07T08:12:31;83.95;;;35.72;;
81353;SDS011;70810;52.038;8.524;2023-12-07T08:14:58;93.80;;;37.13;;
81353;SDS011;70810;52.038;8.524;2023-12-07T08:17:25;88.10;;;36.63;;
81353;SDS011;70810;52.038;8.524;2023-12-07T08:19:53;99.45;;;38.85;;
81353;SDS011;70810;52.038;8.524;2023-12-07T08:25:52;79.15;;;32.13;;
81353;SDS011;70810;52.038;8.524;2023-12-07T08:28:22;110.95;;;38.17;;
81353;SDS011;70810;52.038;8.524;2023-12-07T08:30:52;79.00;;;32.70;;
81353;SDS011;70810;52.038;8.524;2023-12-07T08:33:38;99.78;;;39.20;;
81353;SDS011;70810;52.038;8.524;2023-12-07T08:36:05;94.45;;;33.83;;
81353;SDS011;70810;52.038;8.524;2023-12-07T08:38:33;90.15;;;37.42;;
81353;SDS011;70810;52.038;8.524;2023-12-07T08:41:02;99.57;;;42.20;;
81353;SDS011;70810;52.038;8.524;2023-12-07T08:43:29;79.80;;;33.50;;
81353;SDS011;70810;52.038;8.524;2023-12-07T08:45:56;84.15;;;30.17;;
81353;SDS011;70810;52.038;8.524;2023-12-07T08:48:23;67.03;;;27.70;;
81353;SDS011;70810;52.038;8.524;2023-12-07T08:50:54;93.22;;;33.25;;
81353;SDS011;70810;52.038;8.524;2023-12-07T08:53:23;70.53;;;25.98;;
81353;SDS011;70810;52.038;8.524;2023-12-07T08:56:09;112.60;;;42.92;;
81353;SDS011;70810;52.038;8.524;2023-12-07T08:58:41;86.30;;;31.08;;
81353;SDS011;70810;52.038;8.524;2023-12-07T09:01:08;90.82;;;29.40;;
81353;SDS011;70810;52.038;8.524;2023-12-07T09:03:34;94.35;;;31.02;;
81353;SDS011;70810;52.038;8.524;2023-12-07T09:06:02;103.00;;;33.65;;
81353;SDS011;70810;52.038;8.524;2023-12-07T09:08:31;102.50;;;34.38;;
81353;SDS011;70810;52.038;8.524;2023-12-07T09:11:01;97.20;;;34.78;;
81353;SDS011;70810;52.038;8.524;2023-12-07T09:13:51;102.15;;;35.75;;
81353;SDS011;70810;52.038;8.524;2023-12-07T09:16:31;101.68;;;35.40;;
81353;SDS011;70810;52.038;8.524;2023-12-07T09:19:17;113.80;;;38.00;;
81353;SDS011;70810;52.038;8.524;2023-12-07T09:22:26;98.57;;;37.60;;
81353;SDS011;70810;52.038;8.524;2023-12-07T09:24:56;109.22;;;35.08;;
81353;SDS011;70810;52.038;8.524;2023-12-07T09:27:24;108.43;;;41.50;;
81353;SDS011;70810;52.038;8.524;2023-12-07T09:29:52;86.82;;;33.90;;
81353;SDS011;70810;52.038;8.524;2023-12-07T09:32:19;100.28;;;38.35;;
81353;SDS011;70810;52.038;8.524;2023-12-07T09:34:50;107.95;;;36.35;;
81353;SDS011;70810;52.038;8.524;2023-12-07T09:37:19;131.27;;;44.55;;
81353;SDS011;70810;52.038;8.524;2023-12-07T09:39:50;83.75;;;34.03;;
81353;SDS011;70810;52.038;8.524;2023-12-07T09:42:41;93.60;;;33.70;;
81353;SDS011;70810;52.038;8.524;2023-12-07T09:45:11;90.97;;;37.45;;
81353;SDS011;70810;52.038;8.524;2023-12-07T09:47:38;111.50;;;37.10;;
81353;SDS011;70810;52.038;8.524;2023-12-07T09:50:11;99.97;;;35.60;;
81353;SDS011;70810;52.038;8.524;2023-12-07T09:52:49;105.28;;;37.53;;
81353;SDS011;70810;52.038;8.524;2023-12-07T09:55:20;119.60;;;50.22;;
81353;SDS011;70810;52.038;8.524;2023-12-07T09:57:48;83.82;;;34.97;;
81353;SDS011;70810;52.038;8.524;2023-12-07T10:00:22;104.05;;;37.22;;
81353;SDS011;70810;52.038;8.524;2023-12-07T10:02:50;106.00;;;39.47;;
81353;SDS011;70810;52.038;8.524;2023-12-07T10:05:18;102.38;;;36.17;;
81353;SDS011;70810;52.038;8.524;2023-12-07T10:07:48;103.88;;;37.35;;
81353;SDS011;70810;52.038;8.524;2023-12-07T10:10:16;113.15;;;41.20;;
81353;SDS011;70810;52.038;8.524;2023-12-07T10:12:50;113.38;;;41.28;;
81353;SDS011;70810;52.038;8.524;2023-12-07T10:15:19;109.10;;;41.25;;
81353;SDS011;70810;52.038;8.524;2023-12-07T10:17:52;103.15;;;38.90;;
81353;SDS011;70810;52.038;8.524;2023-12-07T10:20:34;117.88;;;39.35;;
81353;SDS011;70810;52.038;8.524;2023-12-07T10:23:17;112.18;;;39.05;;
81353;SDS011;70810;52.038;8.524;2023-12-07T10:25:51;125.40;;;43.88;;
81353;SDS011;70810;52.038;8.524;2023-12-07T10:28:22;113.35;;;45.80;;
81353;SDS011;70810;52.038;8.524;2023-12-07T10:30:49;97.38;;;37.75;;
81353;SDS011;70810;52.038;8.524;2023-12-07T10:33:18;121.85;;;49.78;;
81353;SDS011;70810;52.038;8.524;2023-12-07T10:35:47;98.93;;;37.80;;
81353;SDS011;70810;52.038;8.524;2023-12-07T10:38:17;88.72;;;34.13;;
81353;SDS011;70810;52.038;8.524;2023-12-07T10:40:58;102.97;;;41.55;;
81353;SDS011;70810;52.038;8.524;2023-12-07T10:43:37;86.05;;;34.38;;
81353;SDS011;70810;52.038;8.524;2023-12-07T10:46:12;110.55;;;44.88;;
81353;SDS011;70810;52.038;8.524;2023-12-07T10:48:44;113.20;;;42.13;;
81353;SDS011;70810;52.038;8.524;2023-12-07T10:51:17;77.45;;;32.50;;
81353;SDS011;70810;52.038;8.524;2023-12-07T10:54:34;93.75;;;37.33;;
81353;SDS011;70810;52.038;8.524;2023-12-07T10:57:34;91.32;;;33.25;;
81353;SDS011;70810;52.038;8.524;2023-12-07T11:00:07;77.22;;;34.00;;
81353;SDS011;70810;52.038;8.524;2023-12-07T11:02:36;73.22;;;29.25;;
81353;SDS011;70810;52.038;8.524;2023-12-07T11:05:07;78.85;;;28.50;;
81353;SDS011;70810;52.038;8.524;2023-12-07T11:07:40;67.55;;;30.38;;
81353;SDS011;70810;52.038;8.524;2023-12-07T11:10:33;102.18;;;43.45;;
81353;SDS011;70810;52.038;8.524;2023-12-07T11:13:08;79.75;;;31.25;;
81353;SDS011;70810;52.038;8.524;2023-12-07T11:15:47;81.43;;;37.65;;
81353;SDS011;70810;52.038;8.524;2023-12-07T11:18:18;88.47;;;39.10;;
81353;SDS011;70810;52.038;8.524;2023-12-07T11:21:08;65.57;;;27.08;;
81353;SDS011;70810;52.038;8.524;2023-12-07T11:23:39;67.20;;;26.73;;
81353;SDS011;70810;52.038;8.524;2023-12-07T11:26:12;84.10;;;34.05;;
81353;SDS011;70810;52.038;8.524;2023-12-07T11:29:14;101.63;;;44.88;;
81353;SDS011;70810;52.038;8.524;2023-12-07T11:32:06;59.58;;;26.90;;
81353;SDS011;70810;52.038;8.524;2023-12-07T11:34:36;65.72;;;29.33;;
81353;SDS011;70810;52.038;8.524;2023-12-07T11:37:14;49.50;;;25.73;;
81353;SDS011;70810;52.038;8.524;2023-12-07T11:40:15;70.50;;;31.75;;
81353;SDS011;70810;52.038;8.524;2023-12-07T11:43:16;94.22;;;39.55;;
81353;SDS011;70810;52.038;8.524;2023-12-07T11:45:49;65.20;;;28.98;;
81353;SDS011;70810;52.038;8.524;2023-12-07T11:48:33;101.22;;;43.25;;
81353;SDS011;70810;52.038;8.524;2023-12-07T11:51:14;70.90;;;29.88;;
81353;SDS011;70810;52.038;8.524;2023-12-07T11:53:45;61.38;;;26.67;;
81353;SDS011;70810;52.038;8.524;2023-12-07T11:56:14;84.28;;;35.35;;
81353;SDS011;70810;52.038;8.524;2023-12-07T11:58:48;90.10;;;40.53;;
81353;SDS011;70810;52.038;8.524;2023-12-07T12:01:16;55.05;;;23.08;;
81353;SDS011;70810;52.038;8.524;2023-12-07T12:03:45;60.35;;;31.65;;
81353;SDS011;70810;52.038;8.524;2023-12-07T12:06:14;75.78;;;32.88;;
81353;SDS011;70810;52.038;8.524;2023-12-07T12:08:42;84.95;;;36.15;;
81353;SDS011;70810;52.038;8.524;2023-12-07T12:11:10;69.00;;;31.63;;
81353;SDS011;70810;52.038;8.524;2023-12-07T12:13:37;64.68;;;28.15;;
81353;SDS011;70810;52.038;8.524;2023-12-07T12:16:05;67.05;;;28.52;;
81353;SDS011;70810;52.038;8.524;2023-12-07T12:18:34;77.18;;;30.17;;
81353;SDS011;70810;52.038;8.524;2023-12-07T12:24:39;50.38;;;21.60;;
81353;SDS011;70810;52.038;8.524;2023-12-07T12:27:30;56.90;;;27.60;;
81353;SDS011;70810;52.038;8.524;2023-12-07T12:30:33;52.90;;;22.27;;
81353;SDS011;70810;52.038;8.524;2023-12-07T12:33:24;48.92;;;22.48;;
81353;SDS011;70810;52.038;8.524;2023-12-07T12:36:16;86.05;;;39.30;;
81353;SDS011;70810;52.038;8.524;2023-12-07T12:39:03;96.82;;;50.92;;
81353;SDS011;70810;52.038;8.524;2023-12-07T12:41:33;56.15;;;24.42;;
81353;SDS011;70810;52.038;8.524;2023-12-07T12:44:00;56.25;;;24.30;;
81353;SDS011;70810;52.038;8.524;2023-12-07T12:46:27;53.83;;;24.63;;
81353;SDS011;70810;52.038;8.524;2023-12-07T12:48:55;80.05;;;33.30;;
81353;SDS011;70810;52.038;8.524;2023-12-07T12:51:23;41.40;;;19.67;;
81353;SDS011;70810;52.038;8.524;2023-12-07T12:53:52;54.10;;;24.90;;
81353;SDS011;70810;52.038;8.524;2023-12-07T12:56:22;67.60;;;26.67;;
81353;SDS011;70810;52.038;8.524;2023-12-07T12:58:53;55.78;;;22.08;;
81353;SDS011;70810;52.038;8.524;2023-12-07T13:01:34;73.43;;;24.90;;
81353;SDS011;70810;52.038;8.524;2023-12-07T13:04:01;65.70;;;28.33;;
81353;SDS011;70810;52.038;8.524;2023-12-07T13:06:31;71.30;;;31.73;;
81353;SDS011;70810;52.038;8.524;2023-12-07T13:09:08;98.57;;;44.25;;
81353;SDS011;70810;52.038;8.524;2023-12-07T13:14:41;55.47;;;21.73;;
81353;SDS011;70810;52.038;8.524;2023-12-07T13:17:25;72.10;;;29.45;;
81353;SDS011;70810;52.038;8.524;2023-12-07T13:20:00;60.78;;;22.35;;
81353;SDS011;70810;52.038;8.524;2023-12-07T13:22:46;52.17;;;19.13;;
81353;SDS011;70810;52.038;8.524;2023-12-07T13:25:19;44.15;;;20.35;;
81353;SDS011;70810;52.038;8.524;2023-12-07T13:30:56;45.65;;;21.38;;
81353;SDS011;70810;52.038;8.524;2023-12-07T13:33:36;64.72;;;25.58;;
81353;SDS011;70810;52.038;8.524;2023-12-07T13:36:25;51.28;;;23.08;;
81353;SDS011;70810;52.038;8.524;2023-12-07T13:39:17;48.60;;;21.45;;
81353;SDS011;70810;52.038;8.524;2023-12-07T13:42:05;51.35;;;21.35;;
81353;SDS011;70810;52.038;8.524;2023-12-07T13:45:20;61.88;;;24.42;;
81353;SDS011;70810;52.038;8.524;2023-12-07T13:47:49;70.53;;;24.67;;
81353;SDS011;70810;52.038;8.524;2023-12-07T13:50:34;53.00;;;22.40;;
81353;SDS011;70810;52.038;8.524;2023-12-07T13:53:08;41.58;;;17.13;;
81353;SDS011;70810;52.038;8.524;2023-12-07T13:55:41;70.38;;;31.63;;
81353;SDS011;70810;52.038;8.524;2023-12-07T13:58:08;46.47;;;20.13;;
81353;SDS011;70810;52.038;8.524;2023-12-07T14:00:38;60.88;;;23.40;;
81353;SDS011;70810;52.038;8.524;2023-12-07T14:03:05;59.20;;;30.85;;
81353;SDS011;70810;52.038;8.524;2023-12-07T14:05:33;48.58;;;20.15;;
81353;SDS011;70810;52.038;8.524;2023-12-07T14:08:01;46.47;;;18.50;;
81353;SDS011;70810;52.038;8.524;2023-12-07T14:10:32;42.15;;;17.08;;
81353;SDS011;70810;52.038;8.524;2023-12-07T14:13:01;54.28;;;20.40;;
81353;SDS011;70810;52.038;8.524;2023-12-07T14:15:30;44.50;;;19.08;;
81353;SDS011;70810;52.038;8.524;2023-12-07T14:18:05;33.90;;;15.82;;
81353;SDS011;70810;52.038;8.524;2023-12-07T14:20:34;51.63;;;21.55;;
81353;SDS011;70810;52.038;8.524;2023-12-07T14:23:05;38.75;;;14.57;;
81353;SDS011;70810;52.038;8.524;2023-12-07T14:25:33;32.53;;;14.20;;
81353;SDS011;70810;52.038;8.524;2023-12-07T14:28:07;30.05;;;13.65;;
81353;SDS011;70810;52.038;8.524;2023-12-07T14:30:44;43.67;;;18.58;;
81353;SDS011;70810;52.038;8.524;2023-12-07T14:33:17;34.10;;;15.43;;
81353;SDS011;70810;52.038;8.524;2023-12-07T14:35:51;32.20;;;13.23;;
81353;SDS011;70810;52.038;8.524;2023-12-07T14:38:39;30.27;;;14.77;;
81353;SDS011;70810;52.038;8.524;2023-12-07T14:41:13;36.15;;;17.48;;
81353;SDS011;70810;52.038;8.524;2023-12-07T14:43:44;36.35;;;18.08;;
81353;SDS011;70810;52.038;8.524;2023-12-07T14:46:14;32.65;;;16.25;;
81353;SDS011;70810;52.038;8.524;2023-12-07T14:48:59;58.55;;;27.55;;
81353;SDS011;70810;52.038;8.524;2023-12-07T14:51:28;50.42;;;24.05;;
81353;SDS011;70810;52.038;8.524;2023-12-07T14:53:57;58.42;;;26.25;;
81353;SDS011;70810;52.038;8.524;2023-12-07T14:56:32;40.55;;;18.75;;
81353;SDS011;70810;52.038;8.524;2023-12-07T14:59:01;60.53;;;25.70;;
81353;SDS011;70810;52.038;8.524;2023-12-07T15:01:34;43.97;;;16.10;;